createdAt,value
2023-02-17T00:01:25.451Z,101385.69
2023-02-17T00:03:27.974Z,101388.38
2023-02-17T00:05:31.034Z,101379.44
2023-02-17T00:07:33.406Z,101368.63
2023-02-17T00:09:38.043Z,101380.28
2023-02-17T00:11:39.804Z,101380.28
2023-02-17T00:13:41.557Z,101378.66
2023-02-17T00:15:43.221Z,101380.28
2023-02-17T00:17:44.946Z,101380.53
2023-02-17T00:19:46.596Z,101373.78
2023-02-17T00:21:50.775Z,101370.00
2023-02-17T00:23:53.520Z,101376.47
2023-02-17T00:25:55.131Z,101373.50
2023-02-17T00:27:56.780Z,101366.47
2023-02-17T00:29:58.504Z,101373.25
2023-02-17T00:32:00.383Z,101377.81
2023-02-17T00:34:02.289Z,101376.50
2023-02-17T00:36:06.615Z,101385.69
2023-02-17T00:38:09.774Z,101381.09
2023-02-17T00:40:11.880Z,101377.03
2023-02-17T00:42:13.832Z,101376.19
2023-02-17T00:44:22.314Z,101373.50
2023-02-17T00:46:24.908Z,101375.13
2023-02-17T00:48:29.428Z,101380.00
2023-02-17T00:50:31.082Z,101382.44
2023-02-17T00:52:32.862Z,101382.38
2023-02-17T00:54:35.918Z,101379.69
2023-02-17T00:56:37.552Z,101379.44
2023-02-17T00:58:39.751Z,101381.31
2023-02-17T01:00:41.597Z,101382.69
2023-02-17T01:02:43.204Z,101378.09
2023-02-17T01:04:45.235Z,101375.09
2023-02-17T01:06:47.060Z,101376.19
2023-02-17T01:08:48.632Z,101376.97
2023-02-17T01:10:52.495Z,101381.59
2023-02-17T01:12:54.645Z,101384.28
2023-02-17T01:14:56.250Z,101381.03
2023-02-17T01:16:57.854Z,101379.19
2023-02-17T01:18:59.602Z,101378.88
2023-02-17T01:21:01.211Z,101369.16
2023-02-17T01:23:03.189Z,101369.69
2023-02-17T01:25:05.343Z,101361.28
2023-02-17T01:27:08.722Z,101363.72
2023-02-17T01:29:10.386Z,101361.56
2023-02-17T01:31:12.892Z,101356.41
2023-02-17T01:33:14.581Z,101359.66
2023-02-17T01:35:16.484Z,101354.53
2023-02-17T01:37:18.144Z,101356.69
2023-02-17T01:39:19.873Z,101359.69
2023-02-17T01:41:23.788Z,101358.63
2023-02-17T01:43:28.640Z,101361.31
2023-02-17T01:45:37.190Z,101362.13
2023-02-17T01:47:38.990Z,101356.19
2023-02-17T01:49:41.984Z,101362.38
2023-02-17T01:51:47.623Z,101362.66
2023-02-17T01:53:53.475Z,101362.91
2023-02-17T01:55:56.380Z,101361.03
2023-02-17T01:58:01.632Z,101361.84
2023-02-17T02:00:05.794Z,101356.41
2023-02-17T02:02:08.341Z,101352.91
2023-02-17T02:04:10.866Z,101344.00
2023-02-17T02:06:18.703Z,101344.53
2023-02-17T02:08:20.687Z,101343.25
2023-02-17T02:10:22.310Z,101342.66
2023-02-17T02:12:25.704Z,101341.06
2023-02-17T02:14:28.216Z,101349.16
2023-02-17T02:16:39.122Z,101344.06
2023-02-17T02:18:54.121Z,101339.97
2023-02-17T02:21:14.004Z,101345.66
2023-02-17T02:23:56.470Z,101345.38
2023-02-17T02:26:18.685Z,101341.88
2023-02-17T02:28:32.999Z,101342.97
2023-02-17T02:30:55.071Z,101345.38
2023-02-17T02:42:10.300Z,101327.78
2023-02-17T02:44:15.199Z,101325.06
2023-02-17T02:46:16.841Z,101324.00
2023-02-17T02:48:18.535Z,101317.78
2023-02-17T02:50:27.886Z,101314.28
2023-02-17T02:52:39.310Z,101316.16
2023-02-17T02:54:52.553Z,101310.47
2023-02-17T02:57:14.922Z,101303.44
2023-02-17T02:59:26.364Z,101298.31
2023-02-17T03:01:36.742Z,101305.06
2023-02-17T03:03:47.057Z,101302.69
2023-02-17T03:05:56.073Z,101293.22
2023-02-17T03:08:03.585Z,101303.75
2023-02-17T03:10:07.783Z,101301.34
2023-02-17T03:12:10.930Z,101292.16
2023-02-17T03:14:14.564Z,101289.44
2023-02-17T03:16:16.151Z,101283.44
2023-02-17T03:18:19.634Z,101293.47
2023-02-17T03:20:21.560Z,101285.88
2023-02-17T03:22:29.605Z,101292.91
2023-02-17T03:24:31.213Z,101282.38
2023-02-17T03:26:33.052Z,101285.34
2023-02-17T03:28:36.337Z,101286.97
2023-02-17T03:30:38.092Z,101291.81
2023-02-17T03:32:40.814Z,101285.06
2023-02-17T03:34:42.493Z,101285.09
2023-02-17T03:36:44.225Z,101283.19
2023-02-17T03:38:45.908Z,101283.72
2023-02-17T03:40:47.527Z,101280.75
2023-02-17T03:42:49.175Z,101284.28
2023-02-17T03:44:52.466Z,101274.59
2023-02-17T03:46:54.264Z,101266.19
2023-02-17T03:48:57.086Z,101269.97
2023-02-17T03:50:59.014Z,101272.66
2023-02-17T03:53:00.704Z,101275.13
2023-02-17T03:55:02.759Z,101277.00
2023-02-17T03:57:04.628Z,101282.94
2023-02-17T03:59:06.409Z,101276.72
2023-02-17T04:01:11.279Z,101281.88
2023-02-17T04:03:12.845Z,101282.38
2023-02-17T04:05:16.270Z,101284.81
2023-02-17T04:07:18.065Z,101281.31
2023-02-17T04:09:19.941Z,101298.84
2023-02-17T04:11:21.710Z,101293.75
2023-02-17T04:13:23.904Z,101292.38
2023-02-17T04:15:25.946Z,101301.03
2023-02-17T04:17:30.081Z,101289.44
2023-02-17T04:19:31.782Z,101300.75
2023-02-17T04:21:33.938Z,101298.34
2023-02-17T04:23:38.591Z,101294.00
2023-02-17T04:25:41.365Z,101296.19
2023-02-17T04:27:43.011Z,101300.22
2023-02-17T04:29:44.704Z,101301.06
2023-02-17T04:31:49.035Z,101297.00
2023-02-17T04:33:52.466Z,101299.19
2023-02-17T04:35:54.081Z,101307.03
2023-02-17T04:37:56.039Z,101308.63
2023-02-17T04:39:59.121Z,101316.50
2023-02-17T04:42:00.722Z,101312.44
2023-02-17T04:44:02.462Z,101309.44
2023-02-17T04:46:07.085Z,101306.75
2023-02-17T04:48:09.974Z,101315.66
2023-02-17T04:50:13.137Z,101309.97
2023-02-17T04:52:14.776Z,101303.50
2023-02-17T04:54:17.456Z,101310.53
2023-02-17T04:56:19.437Z,101306.75
2023-02-17T04:58:21.632Z,101312.69
2023-02-17T05:00:23.423Z,101311.63
2023-02-17T05:02:25.314Z,101307.53
2023-02-17T05:04:29.252Z,101301.03
2023-02-17T05:06:32.287Z,101305.91
2023-02-17T05:08:33.998Z,101306.19
2023-02-17T05:10:35.666Z,101306.75
2023-02-17T05:12:37.242Z,101309.97
2023-02-17T05:14:38.885Z,101309.16
2023-02-17T05:16:40.527Z,101310.53
2023-02-17T05:18:42.155Z,101304.59
2023-02-17T05:20:44.713Z,101308.91
2023-02-17T05:22:47.963Z,101310.22
2023-02-17T05:24:49.598Z,101313.72
2023-02-17T05:26:51.533Z,101314.25
2023-02-17T05:28:53.171Z,101310.50
2023-02-17T05:30:55.050Z,101319.13
2023-02-17T05:32:57.573Z,101315.88
2023-02-17T05:34:59.166Z,101319.91
2023-02-17T05:37:00.775Z,101322.91
2023-02-17T05:39:03.981Z,101321.84
2023-02-17T05:41:06.795Z,101311.56
2023-02-17T05:43:08.739Z,101315.59
2023-02-17T05:45:10.608Z,101317.22
2023-02-17T05:47:12.545Z,101325.88
2023-02-17T05:49:14.520Z,101316.69
2023-02-17T05:51:18.556Z,101306.97
2023-02-17T05:53:20.306Z,101308.84
2023-02-17T05:55:23.330Z,101313.69
2023-02-17T05:57:25.147Z,101311.81
2023-02-17T05:59:26.986Z,101315.31
2023-02-17T06:01:28.862Z,101318.28
2023-02-17T06:03:30.417Z,101319.09
2023-02-17T06:05:32.177Z,101323.16
2023-02-17T06:07:33.985Z,101325.84
2023-02-17T06:09:35.868Z,101323.66
2023-02-17T06:11:38.861Z,101327.75
2023-02-17T06:13:40.449Z,101343.44
2023-02-17T06:15:42.113Z,101342.09
2023-02-17T06:17:44.032Z,101339.63
2023-02-17T06:19:45.701Z,101338.28
2023-02-17T06:21:47.436Z,101339.09
2023-02-17T06:23:49.020Z,101328.28
2023-02-17T06:25:50.885Z,101345.59
2023-02-17T06:27:53.822Z,101346.13
2023-02-17T06:29:55.435Z,101345.59
2023-02-17T06:31:57.071Z,101333.97
2023-02-17T06:33:58.715Z,101343.44
2023-02-17T06:36:00.294Z,101333.19
2023-02-17T06:38:02.094Z,101333.16
2023-02-17T06:40:04.401Z,101330.72
2023-02-17T06:42:05.963Z,101332.63
2023-02-17T06:44:09.058Z,101331.03
2023-02-17T06:46:10.764Z,101329.41
2023-02-17T06:48:12.458Z,101324.25
2023-02-17T06:50:14.266Z,101333.97
2023-02-17T06:52:15.896Z,101329.38
2023-02-17T06:54:17.828Z,101334.22
2023-02-17T06:56:21.141Z,101325.88
2023-02-17T06:58:23.153Z,101343.72
2023-02-17T07:00:26.197Z,101337.47
2023-02-17T07:02:27.878Z,101339.34
2023-02-17T07:04:29.602Z,101336.13
2023-02-17T07:06:31.351Z,101332.56
2023-02-17T07:08:34.195Z,101333.97
2023-02-17T07:10:37.956Z,101346.38
2023-02-17T07:12:39.542Z,101348.00
2023-02-17T07:14:41.170Z,101363.41
2023-02-17T07:16:44.230Z,101355.84
2023-02-17T07:18:45.904Z,101364.19
2023-02-17T07:20:47.540Z,101375.84
2023-02-17T07:22:49.195Z,101375.28
2023-02-17T07:24:50.901Z,101368.78
2023-02-17T07:26:52.696Z,101377.47
2023-02-17T07:28:54.341Z,101373.66
2023-02-17T07:30:56.054Z,101369.84
2023-02-17T07:32:59.045Z,101374.13
2023-02-17T07:35:00.683Z,101380.66
2023-02-17T07:37:02.206Z,101386.84
2023-02-17T07:39:03.945Z,101393.63
2023-02-17T07:41:07.148Z,101388.75
2023-02-17T07:43:08.830Z,101386.06
2023-02-17T07:45:10.401Z,101394.16
2023-02-17T07:47:12.308Z,101396.59
2023-02-17T07:49:15.232Z,101402.78
2023-02-17T07:51:18.326Z,101403.06
2023-02-17T07:53:19.922Z,101402.53
2023-02-17T07:55:21.461Z,101399.28
2023-02-17T07:57:23.313Z,101390.94
2023-02-17T07:59:24.901Z,101385.78
2023-02-17T08:01:26.576Z,101376.88
2023-02-17T08:03:28.158Z,101382.00
2023-02-17T08:05:31.526Z,101381.19
2023-02-17T08:07:33.082Z,101382.56
2023-02-17T08:09:34.705Z,101368.78
2023-02-17T08:11:36.921Z,101380.13
2023-02-17T08:13:38.502Z,101377.94
2023-02-17T08:15:40.113Z,101372.81
2023-02-17T08:17:41.766Z,101375.00
2023-02-17T08:19:48.428Z,101383.06
2023-02-17T08:21:52.541Z,101390.09
2023-02-17T08:23:54.874Z,101393.06
2023-02-17T08:25:57.182Z,101391.22
2023-02-17T08:27:59.030Z,101406.06
2023-02-17T08:30:00.826Z,101400.38
2023-02-17T08:32:02.723Z,101388.00
2023-02-17T08:34:08.870Z,101402.53
2023-02-17T08:36:11.848Z,101392.22
2023-02-17T08:38:14.951Z,101395.78
2023-02-17T08:40:17.358Z,101396.84
2023-02-17T08:42:19.235Z,101405.25
2023-02-17T08:44:20.896Z,101394.19
2023-02-17T08:46:22.672Z,101390.94
2023-02-17T08:48:24.331Z,101403.09
2023-02-17T08:50:29.755Z,101400.16
2023-02-17T08:52:31.615Z,101393.13
2023-02-17T08:54:34.677Z,101399.63
2023-02-17T08:56:38.004Z,101390.97
2023-02-17T08:58:39.565Z,101389.88
2023-02-17T09:00:46.036Z,101392.28
2023-02-17T09:02:47.850Z,101383.09
2023-02-17T09:04:49.516Z,101375.81
2023-02-17T09:06:54.393Z,101380.97
2023-02-17T09:08:56.031Z,101386.06
2023-02-17T09:10:59.723Z,101404.19
2023-02-17T09:13:01.315Z,101385.81
2023-02-17T09:15:03.043Z,101389.59
2023-02-17T09:17:05.451Z,101394.16
2023-02-17T09:19:07.410Z,101387.44
2023-02-17T09:21:11.879Z,101382.03
2023-02-17T09:23:13.679Z,101389.59
2023-02-17T09:25:15.458Z,101371.78
2023-02-17T09:27:18.477Z,101378.25
2023-02-17T09:29:20.180Z,101379.88
2023-02-17T09:31:24.266Z,101385.03
2023-02-17T09:33:27.201Z,101389.88
2023-02-17T09:35:29.048Z,101379.63
2023-02-17T09:37:30.715Z,101386.94
2023-02-17T09:39:32.305Z,101375.59
2023-02-17T09:41:43.430Z,101380.75
2023-02-17T09:43:46.939Z,101379.69
2023-02-17T09:45:52.657Z,101378.09
2023-02-17T09:47:59.402Z,101375.41
2023-02-17T09:50:06.401Z,101391.09
2023-02-17T09:52:13.912Z,101381.84
2023-02-17T09:54:21.462Z,101375.63
2023-02-17T09:56:28.459Z,101378.38
2023-02-17T09:58:34.067Z,101375.34
2023-02-17T10:00:42.321Z,101382.13
2023-02-17T10:02:51.837Z,101383.22
2023-02-17T10:05:00.275Z,101371.31
2023-02-17T10:07:07.432Z,101386.22
2023-02-17T10:09:15.671Z,101385.38
2023-02-17T10:11:28.000Z,101381.09
2023-02-17T10:13:34.230Z,101386.50
2023-02-17T10:15:41.712Z,101398.13
2023-02-17T10:17:51.049Z,101394.06
2023-02-17T10:19:57.959Z,101400.28
2023-02-17T10:22:06.903Z,101404.63
2023-02-17T10:24:08.517Z,101406.53
2023-02-17T10:26:19.500Z,101412.72
2023-02-17T10:28:24.717Z,101412.75
2023-02-17T10:30:32.954Z,101419.78
2023-02-17T10:32:53.411Z,101430.59
2023-02-17T10:35:12.260Z,101426.53
2023-02-17T10:37:17.460Z,101429.78
2023-02-17T10:39:59.392Z,101417.06
2023-02-17T10:42:02.879Z,101419.78
2023-02-17T10:44:08.908Z,101428.69
2023-02-17T10:46:14.849Z,101433.56
2023-02-17T10:48:20.972Z,101418.16
2023-02-17T10:50:24.981Z,101426.81
2023-02-17T10:52:36.477Z,101418.16
2023-02-17T10:54:42.636Z,101415.16
2023-02-17T10:56:50.911Z,101417.06
2023-02-17T10:58:57.958Z,101423.84
2023-02-17T11:00:59.774Z,101410.59
2023-02-17T11:03:01.354Z,101414.38
2023-02-17T11:05:04.990Z,101409.25
2023-02-17T11:07:12.526Z,101410.31
2023-02-17T11:09:19.860Z,101412.50
2023-02-17T11:11:23.238Z,101407.63
2023-02-17T11:13:31.732Z,101405.19
2023-02-17T11:15:36.914Z,101406.28
2023-02-17T11:17:40.746Z,101402.75
2023-02-17T11:19:42.629Z,101391.94
2023-02-17T11:21:46.790Z,101387.59
2023-02-17T11:23:51.795Z,101390.31
2023-02-17T11:26:16.607Z,101384.88
2023-02-17T11:28:24.037Z,101381.38
2023-02-17T11:30:27.761Z,101382.16
2023-02-17T11:32:31.390Z,101387.59
2023-02-17T11:34:35.368Z,101385.97
2023-02-17T11:36:40.462Z,101393.53
2023-02-17T11:38:45.817Z,101382.44
2023-02-17T11:40:58.773Z,101379.72
2023-02-17T11:43:01.692Z,101381.91
2023-02-17T11:45:22.134Z,101381.09
2023-02-17T11:47:34.836Z,101386.22
2023-02-17T11:50:01.258Z,101379.47
2023-02-17T11:52:15.690Z,101376.22
2023-02-17T11:54:23.892Z,101376.22
2023-02-17T11:56:32.865Z,101366.75
2023-02-17T11:58:49.048Z,101377.03
2023-02-17T12:01:02.054Z,101366.72
2023-02-17T12:03:39.496Z,101366.19
2023-02-17T12:05:55.462Z,101368.34
2023-02-17T12:08:12.819Z,101366.72
2023-02-17T12:10:25.550Z,101370.22
2023-02-17T12:12:36.717Z,101369.16
2023-02-17T12:15:10.739Z,101372.41
2023-02-17T12:17:19.840Z,101372.69
2023-02-17T12:19:38.638Z,101366.97
2023-02-17T12:21:50.405Z,101371.56
2023-02-17T12:24:07.220Z,101374.25
2023-02-17T12:26:21.517Z,101374.81
2023-02-17T12:28:48.071Z,101377.50
2023-02-17T12:31:00.522Z,101375.31
2023-02-17T12:33:15.651Z,101368.78
2023-02-17T12:35:22.373Z,101367.75
2023-02-17T12:37:26.944Z,101376.41
2023-02-17T12:39:34.389Z,101378.31
2023-02-17T12:41:41.114Z,101382.91
2023-02-17T12:43:48.800Z,101369.06
2023-02-17T12:45:52.031Z,101380.19
2023-02-17T12:47:59.854Z,101370.16
2023-02-17T12:50:05.282Z,101374.78
2023-02-17T12:52:13.807Z,101367.50
2023-02-17T12:54:21.626Z,101364.47
2023-02-17T12:56:46.723Z,101363.38
2023-02-17T12:58:49.625Z,101362.81
2023-02-17T13:00:54.899Z,101362.25
2023-02-17T13:02:57.751Z,101355.47
2023-02-17T13:05:05.253Z,101355.72
2023-02-17T13:07:20.262Z,101350.84
2023-02-17T13:09:30.382Z,101341.63
2023-02-17T13:11:34.166Z,101344.28
2023-02-17T13:13:40.509Z,101339.47
2023-02-17T13:15:43.731Z,101341.31
2023-02-17T13:17:55.102Z,101329.91
2023-02-17T13:20:22.771Z,101328.31
2023-02-17T13:22:24.712Z,101326.66
2023-02-17T13:24:34.743Z,101329.66
2023-02-17T13:26:38.307Z,101324.00
2023-02-17T13:28:41.617Z,101322.34
2023-02-17T13:30:45.797Z,101317.19
2023-02-17T13:32:59.674Z,101316.94
2023-02-17T13:35:03.412Z,101320.44
2023-02-17T13:37:18.235Z,101324.94
2023-02-17T13:39:33.012Z,101320.50
2023-02-17T13:41:45.831Z,101321.75
2023-02-17T13:43:49.187Z,101327.16
2023-02-17T13:45:57.272Z,101332.03
2023-02-17T13:48:00.749Z,101329.56
2023-02-17T13:50:02.868Z,101329.34
2023-02-17T13:52:10.219Z,101329.03
2023-02-17T13:54:12.605Z,101321.97
2023-02-17T13:56:26.923Z,101322.53
2023-02-17T13:58:30.470Z,101323.63
2023-02-17T14:00:34.013Z,101326.88
2023-02-17T14:02:38.946Z,101324.72
2023-02-17T14:04:40.758Z,101332.28
2023-02-17T14:06:43.030Z,101331.50
2023-02-17T14:08:44.614Z,101333.66
2023-02-17T14:10:46.749Z,101325.53
2023-02-17T14:12:48.801Z,101337.72
2023-02-17T14:14:50.599Z,101340.13
2023-02-17T14:17:02.183Z,101343.13
2023-02-17T14:19:05.952Z,101332.84
2023-02-17T14:21:09.916Z,101326.09
2023-02-17T14:23:13.930Z,101323.63
2023-02-17T14:25:27.041Z,101327.66
2023-02-17T14:27:29.048Z,101326.03
2023-02-17T14:29:41.163Z,101324.69
2023-02-17T14:31:44.861Z,101316.03
2023-02-17T14:33:57.521Z,101316.81
2023-02-17T14:36:01.026Z,101309.47
2023-02-17T14:38:18.891Z,101297.00
2023-02-17T14:40:23.441Z,101293.25
2023-02-17T14:42:24.965Z,101302.47
2023-02-17T14:44:26.568Z,101297.84
2023-02-17T14:46:28.338Z,101303.53
2023-02-17T14:48:29.991Z,101294.56
2023-02-17T14:50:33.617Z,101290.50
2023-02-17T14:52:41.545Z,101282.19
2023-02-17T14:54:43.097Z,101285.13
2023-02-17T14:56:49.264Z,101274.31
2023-02-17T14:58:51.100Z,101293.81
2023-02-17T15:00:52.712Z,101285.19
2023-02-17T15:02:54.398Z,101272.19
2023-02-17T15:04:56.020Z,101286.53
2023-02-17T15:06:59.045Z,101296.81
2023-02-17T15:09:01.133Z,101294.09
2023-02-17T15:11:02.944Z,101315.78
2023-02-17T15:13:04.519Z,101297.34
2023-02-17T15:15:06.655Z,101294.78
2023-02-17T15:17:08.579Z,101278.22
2023-02-17T15:19:10.755Z,101275.22
2023-02-17T15:21:22.415Z,101291.84
2023-02-17T15:23:25.521Z,101279.16
2023-02-17T15:25:31.069Z,101282.38
2023-02-17T15:27:32.645Z,101289.16
2023-02-17T15:29:34.274Z,101279.69
2023-02-17T15:31:35.915Z,101262.03
2023-02-17T15:33:45.254Z,101273.75
2023-02-17T15:35:47.642Z,101276.16
2023-02-17T15:37:50.177Z,101297.03
2023-02-17T15:39:53.101Z,101289.75
2023-02-17T15:41:57.077Z,101291.38
2023-02-17T15:43:58.687Z,101309.28
2023-02-17T15:46:00.528Z,101296.81
2023-02-17T15:48:04.814Z,101314.97
2023-02-17T15:50:12.689Z,101312.84
2023-02-17T15:52:15.489Z,101323.34
2023-02-17T15:54:17.180Z,101321.47
2023-02-17T15:56:21.873Z,101328.25
2023-02-17T15:58:23.563Z,101327.16
2023-02-17T16:00:27.147Z,101328.50
2023-02-17T16:02:29.178Z,101330.38
2023-02-17T16:04:30.752Z,101321.72
2023-02-17T16:06:32.302Z,101322.28
2023-02-17T16:08:33.846Z,101323.34
2023-02-17T16:10:36.210Z,101312.75
2023-02-17T16:12:40.007Z,101309.22
2023-02-17T16:14:41.811Z,101315.72
2023-02-17T16:16:43.515Z,101314.09
2023-02-17T16:18:46.129Z,101309.50
2023-02-17T16:20:48.320Z,101312.19
2023-02-17T16:22:51.016Z,101312.19
2023-02-17T16:24:52.546Z,101333.91
2023-02-17T16:26:54.164Z,101299.75
2023-02-17T16:28:57.997Z,101313.28
2023-02-17T16:30:59.528Z,101307.09
2023-02-17T16:33:01.809Z,101314.63
2023-02-17T16:35:03.429Z,101317.63
2023-02-17T16:37:12.984Z,101316.28
2023-02-17T16:39:16.415Z,101325.53
2023-02-17T16:41:19.760Z,101319.59
2023-02-17T16:43:23.079Z,101326.59
2023-02-17T16:45:28.093Z,101328.47
2023-02-17T16:47:30.462Z,101338.50
2023-02-17T16:49:35.887Z,101346.66
2023-02-17T16:51:37.454Z,101361.25
2023-02-17T16:53:39.175Z,101352.03
2023-02-17T16:55:41.316Z,101345.53
2023-02-17T16:57:44.775Z,101348.25
2023-02-17T16:59:47.139Z,101339.00
2023-02-17T17:01:51.113Z,101346.06
2023-02-17T17:03:52.904Z,101352.88
2023-02-17T17:05:55.095Z,101357.75
2023-02-17T17:07:56.958Z,101371.00
2023-02-17T17:10:15.440Z,101368.56
2023-02-17T17:12:23.567Z,101384.00
2023-02-17T17:14:25.257Z,101375.31
2023-02-17T17:16:30.153Z,101371.53
2023-02-17T17:18:33.207Z,101386.16
2023-02-17T17:20:37.418Z,101381.81
2023-02-17T17:22:39.326Z,101380.75
2023-02-17T17:24:40.914Z,101384.00
2023-02-17T17:26:45.030Z,101391.56
2023-02-17T17:28:53.596Z,101395.91
2023-02-17T17:30:55.202Z,101402.41
2023-02-17T17:32:57.272Z,101394.56
2023-02-17T17:35:01.021Z,101393.47
2023-02-17T17:37:02.909Z,101405.66
2023-02-17T17:39:06.523Z,101407.31
2023-02-17T17:41:11.255Z,101405.41
2023-02-17T17:43:12.948Z,101418.91
2023-02-17T17:45:15.840Z,101408.38
2023-02-17T17:47:29.413Z,101406.75
2023-02-17T17:49:31.961Z,101393.78
2023-02-17T17:51:35.036Z,101408.94
2023-02-17T17:53:36.667Z,101405.66
2023-02-17T17:55:38.370Z,101401.28
2023-02-17T17:57:40.407Z,101399.41
2023-02-17T17:59:41.952Z,101411.63
2023-02-17T18:01:45.764Z,101417.84
2023-02-17T18:03:48.430Z,101407.53
2023-02-17T18:05:50.150Z,101403.50
2023-02-17T18:07:53.340Z,101396.16
2023-02-17T18:09:55.578Z,101401.31
2023-02-17T18:12:01.314Z,101394.00
2023-02-17T18:14:09.302Z,101407.53
2023-02-17T18:16:12.858Z,101408.63
2023-02-17T18:18:14.958Z,101401.59
2023-02-17T18:20:16.833Z,101407.28
2023-02-17T18:22:18.506Z,101403.78
2023-02-17T18:24:21.516Z,101407.03
2023-02-17T18:26:23.304Z,101413.25
2023-02-17T18:28:24.967Z,101421.91
2023-02-17T18:30:26.907Z,101421.34
2023-02-17T18:32:31.616Z,101417.28
2023-02-17T18:34:36.042Z,101427.56
2023-02-17T18:36:37.616Z,101433.78
2023-02-17T18:38:41.659Z,101428.41
2023-02-17T18:40:44.635Z,101430.56
2023-02-17T18:42:46.422Z,101424.88
2023-02-17T18:44:48.078Z,101430.00
2023-02-17T18:46:49.766Z,101426.78
2023-02-17T18:48:51.340Z,101432.19
2023-02-17T18:50:52.875Z,101426.50
2023-02-17T18:52:54.466Z,101435.69
2023-02-17T18:54:56.049Z,101438.13
2023-02-17T18:56:59.005Z,101439.47
2023-02-17T18:59:00.592Z,101448.66
2023-02-17T19:01:02.200Z,101450.88
2023-02-17T19:03:03.831Z,101449.78
2023-02-17T19:05:07.029Z,101453.56
2023-02-17T19:07:08.648Z,101454.91
2023-02-17T19:09:10.361Z,101452.47
2023-02-17T19:11:12.409Z,101446.78
2023-02-17T19:13:15.633Z,101457.09
2023-02-17T19:15:17.290Z,101452.50
2023-02-17T19:17:19.105Z,101447.06
2023-02-17T19:19:20.886Z,101438.94
2023-02-17T19:21:22.830Z,101447.06
2023-02-17T19:23:24.474Z,101440.84
2023-02-17T19:25:26.085Z,101449.78
2023-02-17T19:27:28.568Z,101451.13
2023-02-17T19:29:31.746Z,101455.16
2023-02-17T19:31:33.571Z,101450.03
2023-02-17T19:33:35.445Z,101447.34
2023-02-17T19:35:40.441Z,101457.09
2023-02-17T19:37:42.043Z,101455.47
2023-02-17T19:39:43.633Z,101454.63
2023-02-17T19:41:45.309Z,101457.09
2023-02-17T19:43:47.042Z,101455.16
2023-02-17T19:45:50.090Z,101461.13
2023-02-17T19:47:51.753Z,101460.31
2023-02-17T19:49:53.444Z,101457.34
2023-02-17T19:51:55.081Z,101463.25
2023-02-17T19:53:57.089Z,101465.41
2023-02-17T19:56:08.041Z,101472.72
2023-02-17T19:58:10.759Z,101471.38
2023-02-17T20:00:13.291Z,101476.53
2023-02-17T20:02:16.546Z,101479.22
2023-02-17T20:04:18.254Z,101481.94
2023-02-17T20:06:22.103Z,101485.78
2023-02-17T20:08:23.768Z,101483.06
2023-02-17T20:10:25.345Z,101492.78
2023-02-17T20:12:27.117Z,101487.91
2023-02-17T20:14:28.778Z,101491.44
2023-02-17T20:16:31.100Z,101491.19
2023-02-17T20:18:35.415Z,101480.06
2023-02-17T20:20:37.024Z,101484.41
2023-02-17T20:22:39.287Z,101478.44
2023-02-17T20:24:40.888Z,101477.91
2023-02-17T20:26:45.520Z,101476.31
2023-02-17T20:28:47.709Z,101476.56
2023-02-17T20:30:49.508Z,101466.00
2023-02-17T20:32:51.186Z,101471.69
2023-02-17T20:34:54.132Z,101472.50
2023-02-17T20:36:56.434Z,101477.09
2023-02-17T20:39:01.909Z,101481.44
2023-02-17T20:41:08.936Z,101478.97
2023-02-17T20:43:10.936Z,101478.72
2023-02-17T20:45:12.627Z,101469.50
2023-02-17T20:47:14.198Z,101476.03
2023-02-17T20:49:15.820Z,101481.97
2023-02-17T20:51:19.370Z,101477.66
2023-02-17T20:53:21.167Z,101475.50
2023-02-17T20:55:25.981Z,101475.25
2023-02-17T20:57:28.713Z,101474.38
2023-02-17T20:59:30.354Z,101479.28
2023-02-17T21:01:32.404Z,101482.78
2023-02-17T21:03:34.225Z,101490.63
2023-02-17T21:05:36.832Z,101483.84
2023-02-17T21:07:40.575Z,101485.47
2023-02-17T21:09:42.200Z,101489.00
2023-02-17T21:11:44.431Z,101489.28
2023-02-17T21:13:46.458Z,101487.38
2023-02-17T21:15:48.817Z,101485.47
2023-02-17T21:17:50.583Z,101487.94
2023-02-17T21:19:52.176Z,101489.03
2023-02-17T21:21:53.823Z,101492.00
2023-02-17T21:23:58.186Z,101486.88
2023-02-17T21:25:59.798Z,101487.41
2023-02-17T21:28:01.394Z,101485.47
2023-02-17T21:30:03.595Z,101487.91
2023-02-17T21:32:05.347Z,101493.06
2023-02-17T21:34:06.983Z,101497.66
2023-02-17T21:36:09.805Z,101492.50
2023-02-17T21:38:11.587Z,101490.06
2023-02-17T21:40:14.752Z,101492.53
2023-02-17T21:42:16.373Z,101483.06
2023-02-17T21:44:17.972Z,101486.56
2023-02-17T21:46:19.758Z,101494.16
2023-02-17T21:48:21.437Z,101484.66
2023-02-17T21:50:23.031Z,101487.91
2023-02-17T21:52:24.725Z,101482.78
2023-02-17T21:54:26.320Z,101486.81
2023-02-17T21:56:31.386Z,101487.06
2023-02-17T21:58:36.178Z,101489.53
2023-02-17T22:00:37.800Z,101496.59
2023-02-17T22:02:39.758Z,101500.13
2023-02-17T22:04:41.375Z,101499.53
2023-02-17T22:06:44.223Z,101499.81
2023-02-17T22:08:46.226Z,101493.84
2023-02-17T22:13:08.521Z,101492.75
2023-02-17T22:15:10.587Z,101499.25
2023-02-17T22:17:12.114Z,101503.59
2023-02-17T22:19:17.206Z,101493.84
2023-02-17T22:21:18.904Z,101500.09
2023-02-17T22:23:20.497Z,101497.63
2023-02-17T22:25:22.418Z,101494.66
2023-02-17T22:27:24.033Z,101499.81
2023-02-17T22:29:26.963Z,101501.16
2023-02-17T22:31:30.080Z,101488.69
2023-02-17T22:33:32.493Z,101489.53
2023-02-17T22:35:34.107Z,101490.59
2023-02-17T22:37:36.584Z,101481.66
2023-02-17T22:39:38.162Z,101479.53
2023-02-17T22:41:39.722Z,101475.97
2023-02-17T22:43:42.388Z,101477.88
2023-02-17T22:45:45.375Z,101477.06
2023-02-17T22:47:51.249Z,101480.84
2023-02-17T22:49:52.835Z,101478.69
2023-02-17T22:51:54.467Z,101479.47
2023-02-17T22:53:57.019Z,101483.03
2023-02-17T22:55:58.690Z,101481.44
2023-02-17T22:58:00.230Z,101476.00
2023-02-17T23:00:01.894Z,101492.56
2023-02-17T23:02:04.902Z,101483.59
2023-02-17T23:04:08.487Z,101490.09
2023-02-17T23:06:12.234Z,101484.69
2023-02-17T23:08:13.835Z,101475.47
2023-02-17T23:10:15.417Z,101468.69
2023-02-17T23:12:17.001Z,101472.22
2023-02-17T23:14:21.113Z,101468.16
2023-02-17T23:16:22.696Z,101464.09
2023-02-17T23:18:25.619Z,101462.75
2023-02-17T23:20:27.226Z,101463.53
2023-02-17T23:22:28.918Z,101465.97
2023-02-17T23:24:30.783Z,101471.94
2023-02-17T23:26:32.348Z,101462.72
2023-02-17T23:28:36.647Z,101470.59
2023-02-17T23:30:41.274Z,101472.72
2023-02-17T23:32:42.964Z,101477.09
2023-02-17T23:34:45.936Z,101470.56
2023-02-17T23:36:47.566Z,101473.56
2023-02-17T23:38:49.131Z,101475.47
2023-02-17T23:40:52.047Z,101471.94
2023-02-17T23:42:53.634Z,101478.94
2023-02-17T23:44:55.185Z,101477.59
2023-02-17T23:46:56.886Z,101477.03
2023-02-17T23:48:58.640Z,101474.06